Polar Ranger — WDC8652 — position and weather

sailwx.info

Track history (hours):
 
Tides and Currents Weather Stations Pressure Air Temp Water Temp Dewpoint Dewpoint Depression Visibility Wind Speed Wind Dir Waves Ship Positions

Polar Ranger

More information available from US FCC via Universal Licensing System and Coast Guard Vessel Documentation Center.

Last reported at 2014-Aug-26 01:09 UTC. Time now 2014-Sep-01 18:42 UTC.
Position N 47°58' W 122°17'.

Type: Tow > 200 m length. MMSI: 367090860.

Date/timePositionNaut miles runAvg speedWind from/ knotsBaromVisibWave heightAir tempDewpointWater temp
2014-Aug-26 01:09N 47°58' W 122°17'812.7
2014-Aug-26 00:33N 47°52' W 122°23'1313.0
2014-Aug-25 23:33N 47°39' W 122°26'4 4.0
2014-Aug-25 22:34N 47°36' W 122°22'0 0.4
2014-Aug-25 21:34N 47°36' W 122°22'6 5.5
2014-Aug-25 20:34N 47°39' W 122°28'8 7.7
2014-Aug-25 19:33N 47°47' W 122°27'7 7.4
2014-Aug-25 18:34N 47°54' W 122°30'7 6.6
2014-Aug-25 17:33N 47°59' W 122°37'11 4.8
2014-Aug-25 15:17N 48°09' W 122°44'4 4.7
2014-Aug-25 14:29N 48°11' W 122°49'6 6.6
2014-Aug-25 13:33N 48°11' W 122°58'8 7.7
2014-Aug-25 12:33N 48°12' W 123°09'8 8.0
2014-Aug-25 11:32N 48°12' W 123°22'8 8.5
2014-Aug-25 10:33N 48°12' W 123°34'8 7.9
2014-Aug-25 09:32N 48°13' W 123°46'8 8.4
2014-Aug-25 08:33N 48°14' W 123°59'7 7.3
2014-Aug-25 07:33N 48°17' W 124°09'7 7.4
2014-Aug-25 06:34N 48°20' W 124°19'7 7.2
2014-Aug-25 05:34N 48°23' W 124°28'7 6.7
2014-Aug-25 04:34N 48°26' W 124°38'7 6.7
2014-Aug-25 03:34N 48°28' W 124°47'7 6.6
2014-Aug-25 02:33N 48°29' W 124°57'8 7.6
2014-Aug-25 01:33N 48°32' W 125°07'8 8.5
2014-Aug-25 00:34N 48°37' W 125°18'8 8.0
2014-Aug-24 23:32N 48°42' W 125°27'8 8.5
2014-Aug-24 22:34N 48°47' W 125°37'8 8.4
2014-Aug-24 21:33N 48°52' W 125°47'8 8.0
2014-Aug-24 20:33N 48°57' W 125°57'7 7.2
2014-Aug-24 19:34N 49°01' W 126°06'7 7.2
2014-Aug-24 18:33N 49°06' W 126°15'  
2014-Aug-22 06:00N 55°42' W 132°18'190 6.0 360 / 111022.010.8 0.516.7 10.6
2014-Aug-20 22:26N 58°17' W 135°41'6 6.8
2014-Aug-20 21:33N 58°17' W 135°53'312 7.9
2014-Aug-19 06:00N 58°00' W 145°42'278 5.8 250 / 121019.010.8 0.513.9 15.0
2014-Aug-17 06:00N 57°42' W 154°24'   999 / 5999.2 5.4 13.3 14.2
Track history (hours):
 
Tides and Currents Weather Stations Pressure Air Temp Water Temp Dewpoint Dewpoint Depression Visibility Wind Speed Wind Dir Waves Ship Positions

Polar Ranger

More information available from US FCC via Universal Licensing System and Coast Guard Vessel Documentation Center.

Last reported at 2014-Aug-26 01:09 UTC. Time now 2014-Sep-01 18:42 UTC.
Position N 47°58' W 122°17'.

Type: Tow > 200 m length. MMSI: 367090860.

Date/timePositionNaut miles runAvg speedWind from/ knotsBaromVisibWave heightAir tempDewpointWater temp
2014-Aug-26 01:09N 47°58' W 122°17'812.7
2014-Aug-26 00:33N 47°52' W 122°23'1313.0
2014-Aug-25 23:33N 47°39' W 122°26'4 4.0
2014-Aug-25 22:34N 47°36' W 122°22'0 0.4
2014-Aug-25 21:34N 47°36' W 122°22'6 5.5
2014-Aug-25 20:34N 47°39' W 122°28'8 7.7
2014-Aug-25 19:33N 47°47' W 122°27'7 7.4
2014-Aug-25 18:34N 47°54' W 122°30'7 6.6
2014-Aug-25 17:33N 47°59' W 122°37'11 4.8
2014-Aug-25 15:17N 48°09' W 122°44'4 4.7
2014-Aug-25 14:29N 48°11' W 122°49'6 6.6
2014-Aug-25 13:33N 48°11' W 122°58'8 7.7
2014-Aug-25 12:33N 48°12' W 123°09'8 8.0
2014-Aug-25 11:32N 48°12' W 123°22'8 8.5
2014-Aug-25 10:33N 48°12' W 123°34'8 7.9
2014-Aug-25 09:32N 48°13' W 123°46'8 8.4
2014-Aug-25 08:33N 48°14' W 123°59'7 7.3
2014-Aug-25 07:33N 48°17' W 124°09'7 7.4
2014-Aug-25 06:34N 48°20' W 124°19'7 7.2
2014-Aug-25 05:34N 48°23' W 124°28'7 6.7
2014-Aug-25 04:34N 48°26' W 124°38'7 6.7
2014-Aug-25 03:34N 48°28' W 124°47'7 6.6
2014-Aug-25 02:33N 48°29' W 124°57'8 7.6
2014-Aug-25 01:33N 48°32' W 125°07'8 8.5
2014-Aug-25 00:34N 48°37' W 125°18'8 8.0
2014-Aug-24 23:32N 48°42' W 125°27'8 8.5
2014-Aug-24 22:34N 48°47' W 125°37'8 8.4
2014-Aug-24 21:33N 48°52' W 125°47'8 8.0
2014-Aug-24 20:33N 48°57' W 125°57'7 7.2
2014-Aug-24 19:34N 49°01' W 126°06'7 7.2
2014-Aug-24 18:33N 49°06' W 126°15'  
2014-Aug-22 06:00N 55°42' W 132°18'190 6.0 360 / 111022.010.8 0.516.7 10.6
2014-Aug-20 22:26N 58°17' W 135°41'6 6.8
2014-Aug-20 21:33N 58°17' W 135°53'312 7.9
2014-Aug-19 06:00N 58°00' W 145°42'278 5.8 250 / 121019.010.8 0.513.9 15.0
2014-Aug-17 06:00N 57°42' W 154°24'   999 / 5999.2 5.4 13.3 14.2

Dump ship's entire track history